createdAt,value
2018-09-18T00:02:10.883Z,87.70
2018-09-18T00:04:39.169Z,88.90
2018-09-18T00:07:07.467Z,88.00
2018-09-18T00:09:35.656Z,87.90
2018-09-18T00:12:03.901Z,86.60
2018-09-18T00:15:56.620Z,86.40
2018-09-18T00:20:52.800Z,84.50
2018-09-18T00:25:49.000Z,83.60
2018-09-18T00:28:17.203Z,84.10
2018-09-18T00:30:45.463Z,85.20
2018-09-18T00:33:13.748Z,84.50
2018-09-18T00:35:48.683Z,84.70
2018-09-18T00:38:16.955Z,84.70
2018-09-18T00:40:45.148Z,84.70
2018-09-18T00:43:13.355Z,85.20
2018-09-18T00:45:41.568Z,85.60
2018-09-18T00:48:09.917Z,85.20
2018-09-18T00:50:38.115Z,86.20
2018-09-18T00:53:06.308Z,85.80
2018-09-18T00:55:34.505Z,85.20
2018-09-18T00:58:02.755Z,85.30
2018-09-18T01:00:31.039Z,84.60
2018-09-18T01:02:59.298Z,84.30
2018-09-18T01:05:27.483Z,84.20
2018-09-18T01:07:55.663Z,84.00
2018-09-18T01:10:23.855Z,84.20
2018-09-18T01:12:52.132Z,84.50
2018-09-18T01:15:20.456Z,84.00
2018-09-18T01:17:48.907Z,84.00
2018-09-18T01:20:17.123Z,83.30
2018-09-18T01:22:45.415Z,84.30
2018-09-18T01:26:23.310Z,86.10
2018-09-18T01:28:51.579Z,86.80
2018-09-18T01:31:19.767Z,88.10
2018-09-18T01:33:48.056Z,88.30
2018-09-18T01:36:16.268Z,87.40
2018-09-18T01:38:44.479Z,86.50
2018-09-18T01:41:12.815Z,86.30
2018-09-18T01:43:42.083Z,89.70
2018-09-18T01:46:10.327Z,90.20
2018-09-18T01:48:38.616Z,85.10
2018-09-18T01:51:06.804Z,84.90
2018-09-18T01:53:34.996Z,84.50
2018-09-18T01:58:31.200Z,84.70
2018-09-18T02:00:59.420Z,85.30
2018-09-18T02:03:27.604Z,86.60
2018-09-18T02:05:55.796Z,86.30
2018-09-18T02:09:26.850Z,86.00
2018-09-18T02:11:55.068Z,84.90
2018-09-18T02:14:23.323Z,84.80
2018-09-18T02:16:51.543Z,84.70
2018-09-18T02:19:19.795Z,85.10
2018-09-18T02:21:47.984Z,84.80
2018-09-18T02:26:44.152Z,85.50
2018-09-18T02:29:12.334Z,87.10
2018-09-18T02:31:40.561Z,87.30
2018-09-18T02:34:08.846Z,86.40
2018-09-18T02:36:37.095Z,85.00
2018-09-18T02:39:08.671Z,83.50
2018-09-18T02:41:37.089Z,84.10
2018-09-18T02:44:05.398Z,83.20
2018-09-18T02:46:33.675Z,83.60
2018-09-18T02:49:01.911Z,84.10
2018-09-18T02:51:30.289Z,84.60
2018-09-18T02:53:58.522Z,85.00
2018-09-18T02:56:26.855Z,84.60
2018-09-18T02:58:55.066Z,85.30
2018-09-18T03:01:23.352Z,85.10
2018-09-18T03:03:51.716Z,83.60
2018-09-18T03:06:20.014Z,84.30
2018-09-18T03:08:48.231Z,84.20
2018-09-18T03:11:16.505Z,83.30
2018-09-18T03:13:44.619Z,82.10
2018-09-18T03:16:12.896Z,83.80
2018-09-18T03:18:41.156Z,82.20
2018-09-18T03:21:09.452Z,82.30
2018-09-18T03:23:37.632Z,82.50
2018-09-18T03:26:05.869Z,82.70
2018-09-18T03:28:34.167Z,83.30
2018-09-18T03:31:02.382Z,83.70
2018-09-18T03:33:30.615Z,84.20
2018-09-18T03:35:58.843Z,84.40
2018-09-18T03:38:27.079Z,85.10
2018-09-18T03:40:55.312Z,84.70
2018-09-18T03:43:23.531Z,85.20
2018-09-18T03:45:51.808Z,86.10
2018-09-18T03:48:20.071Z,87.20
2018-09-18T03:50:48.296Z,86.80
2018-09-18T03:53:16.484Z,87.60
2018-09-18T03:55:44.717Z,88.10
2018-09-18T03:58:13.008Z,90.00
2018-09-18T04:01:44.307Z,89.60
2018-09-18T04:04:12.496Z,88.90
2018-09-18T04:06:40.796Z,87.30
2018-09-18T04:09:10.512Z,86.90
2018-09-18T04:11:38.905Z,87.50
2018-09-18T04:14:07.211Z,87.80
2018-09-18T04:16:35.408Z,88.10
2018-09-18T04:19:03.624Z,86.90
2018-09-18T04:21:39.783Z,86.30
2018-09-18T04:24:08.036Z,85.80
2018-09-18T04:26:36.863Z,85.20
2018-09-18T04:29:05.483Z,85.00
2018-09-18T04:31:33.771Z,84.90
2018-09-18T04:34:01.963Z,83.50
2018-09-18T04:36:30.226Z,84.20
2018-09-18T04:38:58.497Z,83.70
2018-09-18T04:41:26.787Z,84.00
2018-09-18T04:43:55.078Z,83.60
2018-09-18T04:46:23.907Z,83.20
2018-09-18T04:48:52.251Z,83.50
2018-09-18T04:56:12.664Z,86.00
2018-09-18T04:59:11.963Z,86.20
2018-09-18T05:01:40.171Z,86.70
2018-09-18T05:04:08.431Z,86.90
2018-09-18T05:06:36.676Z,86.70
2018-09-18T05:09:07.443Z,88.80
2018-09-18T05:11:35.808Z,86.60
2018-09-18T05:14:04.161Z,87.30
2018-09-18T05:16:32.491Z,87.00
2018-09-18T05:19:00.717Z,87.10
2018-09-18T05:21:28.952Z,86.10
2018-09-18T05:23:57.215Z,86.40
2018-09-18T05:26:25.431Z,87.00
2018-09-18T05:28:54.527Z,87.20
2018-09-18T05:31:22.723Z,88.80
2018-09-18T05:33:50.936Z,88.90
2018-09-18T05:36:19.121Z,88.90
2018-09-18T05:38:47.323Z,89.80
2018-09-18T05:41:15.507Z,90.00
2018-09-18T05:43:43.775Z,90.10
2018-09-18T05:46:12.045Z,89.40
2018-09-18T05:48:40.244Z,89.30
2018-09-18T05:51:08.490Z,89.90
2018-09-18T05:53:36.696Z,89.40
2018-09-18T05:56:04.912Z,89.10
2018-09-18T05:58:33.634Z,88.80
2018-09-18T06:01:01.827Z,88.50
2018-09-18T06:03:30.028Z,89.10
2018-09-18T06:05:58.260Z,94.00
2018-09-18T06:10:54.494Z,95.50
2018-09-18T06:15:50.743Z,90.80
2018-09-18T06:18:19.028Z,91.70
2018-09-18T06:20:47.292Z,92.10
2018-09-18T06:23:15.579Z,92.00
2018-09-18T06:25:43.924Z,91.70
2018-09-18T06:28:12.191Z,92.10
2018-09-18T06:30:40.395Z,92.10
2018-09-18T06:33:08.919Z,92.00
2018-09-18T06:35:37.163Z,92.30
2018-09-18T06:38:05.451Z,92.20
2018-09-18T06:40:33.783Z,92.60
2018-09-18T06:43:02.094Z,91.20
2018-09-18T06:45:30.294Z,91.40
2018-09-18T06:47:58.537Z,91.80
2018-09-18T06:50:26.723Z,91.00
2018-09-18T06:52:54.931Z,91.00
2018-09-18T06:55:23.175Z,89.20
2018-09-18T06:57:51.393Z,89.80
2018-09-18T07:00:19.618Z,87.60
2018-09-18T07:09:51.409Z,87.10
2018-09-18T07:12:19.600Z,88.90
2018-09-18T07:14:47.862Z,86.10
2018-09-18T07:17:16.123Z,86.80
2018-09-18T07:19:44.324Z,86.10
2018-09-18T07:22:12.540Z,84.80
2018-09-18T07:24:40.766Z,84.00
2018-09-18T07:27:08.947Z,81.40
2018-09-18T07:29:37.158Z,79.30
2018-09-18T07:32:05.375Z,77.40
2018-09-18T07:34:33.652Z,77.00
2018-09-18T07:37:01.860Z,76.00
2018-09-18T07:39:30.127Z,73.40
2018-09-18T07:44:26.260Z,72.70
2018-09-18T07:46:54.518Z,71.90
2018-09-18T07:49:22.851Z,71.80
2018-09-18T07:51:51.084Z,70.70
2018-09-18T07:54:19.344Z,70.30
2018-09-18T07:56:47.622Z,69.40
2018-09-18T07:59:15.907Z,68.90
2018-09-18T08:01:44.167Z,69.30
2018-09-18T08:04:12.454Z,68.90
2018-09-18T08:06:40.777Z,67.30
2018-09-18T08:09:09.988Z,67.60
2018-09-18T08:11:38.241Z,68.30
2018-09-18T08:14:06.466Z,67.00
2018-09-18T08:16:34.676Z,66.70
2018-09-18T08:19:03.021Z,65.00
2018-09-18T08:21:31.155Z,63.70
2018-09-18T08:23:59.337Z,62.10
2018-09-18T08:26:27.521Z,62.10
2018-09-18T08:28:55.724Z,63.20
2018-09-18T08:31:23.959Z,61.60
2018-09-18T08:33:52.142Z,61.10
2018-09-18T08:36:20.322Z,61.50
2018-09-18T08:38:48.529Z,60.80
2018-09-18T08:41:16.769Z,57.50
2018-09-18T08:43:44.966Z,57.00
2018-09-18T08:46:19.516Z,57.50
2018-09-18T08:48:53.305Z,58.20
2018-09-18T08:51:21.582Z,58.80
2018-09-18T08:53:49.767Z,56.30
2018-09-18T08:56:18.041Z,56.70
2018-09-18T08:58:46.323Z,55.70
2018-09-18T09:01:14.599Z,56.10
2018-09-18T09:03:42.869Z,54.00
2018-09-18T09:06:11.167Z,55.90
2018-09-18T09:08:39.427Z,55.30
2018-09-18T09:11:07.606Z,54.10
2018-09-18T09:13:36.140Z,53.60
2018-09-18T09:16:04.613Z,54.10
2018-09-18T09:18:33.258Z,54.70
2018-09-18T09:21:01.532Z,55.20
2018-09-18T09:23:30.156Z,54.70
2018-09-18T09:25:58.391Z,52.00
2018-09-18T09:28:26.683Z,52.70
2018-09-18T09:33:22.864Z,52.80
2018-09-18T09:38:19.039Z,48.30
2018-09-18T09:40:47.436Z,51.30
2018-09-18T09:48:11.825Z,50.30
2018-09-18T09:50:40.069Z,48.40
2018-09-18T09:53:08.236Z,46.00
2018-09-18T09:55:36.486Z,46.30
2018-09-18T09:58:04.701Z,47.50
2018-09-18T10:00:38.256Z,45.20
2018-09-18T10:03:06.497Z,45.80
2018-09-18T10:05:34.779Z,46.00
2018-09-18T10:08:03.056Z,48.60
2018-09-18T10:10:31.309Z,47.00
2018-09-18T10:12:59.488Z,48.70
2018-09-18T10:15:27.671Z,46.80
2018-09-18T10:17:56.129Z,47.50
2018-09-18T10:20:24.156Z,45.70
2018-09-18T10:22:52.383Z,45.80
2018-09-18T10:25:20.608Z,45.20
2018-09-18T10:27:48.862Z,46.50
2018-09-18T10:30:17.107Z,45.80
2018-09-18T10:32:45.401Z,45.90
2018-09-18T10:35:13.605Z,45.10
2018-09-18T10:37:41.790Z,47.20
2018-09-18T10:40:10.017Z,47.40
2018-09-18T10:42:38.231Z,45.20
2018-09-18T10:45:07.231Z,46.40
2018-09-18T10:47:35.484Z,44.70
2018-09-18T10:52:31.665Z,44.30
2018-09-18T10:54:59.875Z,45.20
2018-09-18T10:59:56.185Z,45.30
2018-09-18T11:02:24.380Z,44.40
2018-09-18T11:04:52.578Z,45.60
2018-09-18T11:07:20.836Z,43.50
2018-09-18T11:09:49.071Z,46.50
2018-09-18T11:12:17.337Z,46.40
2018-09-18T11:14:45.531Z,45.80
2018-09-18T11:17:13.768Z,43.70
2018-09-18T11:22:10.006Z,44.50
2018-09-18T11:24:38.163Z,44.40
2018-09-18T11:27:06.368Z,44.80
2018-09-18T11:29:34.659Z,45.30
2018-09-18T11:32:02.975Z,45.50
2018-09-18T11:34:31.203Z,44.70
2018-09-18T11:36:59.416Z,45.00
2018-09-18T11:39:27.598Z,45.00
2018-09-18T11:41:55.894Z,43.90
2018-09-18T11:44:24.365Z,44.90
2018-09-18T11:46:52.644Z,46.20
2018-09-18T11:49:27.295Z,47.10
2018-09-18T11:51:55.502Z,44.20
2018-09-18T11:54:23.732Z,45.60
2018-09-18T11:56:52.061Z,46.20
2018-09-18T11:59:20.204Z,46.00
2018-09-18T12:01:48.431Z,45.30
2018-09-18T12:04:16.721Z,45.90
2018-09-18T12:06:44.928Z,45.40
2018-09-18T12:09:13.289Z,43.60
2018-09-18T12:11:41.914Z,44.20
2018-09-18T12:14:10.124Z,44.40
2018-09-18T12:16:38.439Z,44.40
2018-09-18T12:19:06.751Z,44.80
2018-09-18T12:21:35.020Z,44.90
2018-09-18T12:24:03.227Z,45.50
2018-09-18T12:26:31.454Z,45.40
2018-09-18T12:28:59.687Z,45.90
2018-09-18T12:31:27.991Z,44.40
2018-09-18T12:33:56.254Z,45.00
2018-09-18T12:38:52.587Z,46.90
2018-09-18T12:41:20.895Z,45.30
2018-09-18T12:43:49.088Z,43.60
2018-09-18T12:46:17.279Z,43.80
2018-09-18T12:48:45.636Z,44.30
2018-09-18T12:51:13.727Z,45.40
2018-09-18T12:53:42.003Z,44.80
2018-09-18T12:56:10.325Z,45.50
2018-09-18T12:58:38.377Z,45.30
2018-09-18T13:01:06.660Z,46.60
2018-09-18T13:03:35.968Z,45.40
2018-09-18T13:06:04.303Z,45.10
2018-09-18T13:08:32.440Z,46.40
2018-09-18T13:11:00.643Z,45.70
2018-09-18T13:13:28.860Z,46.50
2018-09-18T13:15:57.152Z,46.60
2018-09-18T13:20:53.331Z,45.70
2018-09-18T13:23:21.507Z,47.10
2018-09-18T13:25:49.689Z,46.90
2018-09-18T13:28:17.863Z,47.10
2018-09-18T13:31:49.326Z,48.60
2018-09-18T13:34:17.631Z,50.00
2018-09-18T13:36:45.933Z,47.80
2018-09-18T13:39:14.234Z,48.40
2018-09-18T13:41:42.436Z,47.90
2018-09-18T13:44:10.761Z,50.50
2018-09-18T13:46:39.017Z,49.70
2018-09-18T13:49:07.231Z,49.50
2018-09-18T13:51:35.515Z,48.50
2018-09-18T13:54:03.757Z,47.80
2018-09-18T13:59:00.040Z,48.80
2018-09-18T14:01:28.445Z,49.30
2018-09-18T14:03:56.632Z,50.30
2018-09-18T14:06:24.908Z,50.60
2018-09-18T14:08:53.110Z,50.90
2018-09-18T14:11:21.314Z,50.10
2018-09-18T14:13:49.515Z,50.20
2018-09-18T14:16:17.835Z,50.30
2018-09-18T14:18:46.090Z,49.30
2018-09-18T14:21:15.379Z,50.10
2018-09-18T14:23:50.323Z,50.90
2018-09-18T14:26:18.652Z,50.70
2018-09-18T14:28:46.881Z,51.30
2018-09-18T14:31:15.131Z,51.30
2018-09-18T14:33:43.324Z,51.20
2018-09-18T14:36:11.521Z,51.00
2018-09-18T14:38:39.748Z,51.70
2018-09-18T14:41:08.027Z,50.30
2018-09-18T14:48:32.186Z,51.90
2018-09-18T14:51:00.452Z,52.40
2018-09-18T14:53:29.417Z,52.80
2018-09-18T14:55:57.612Z,52.00
2018-09-18T14:58:25.807Z,52.20
2018-09-18T15:00:54.039Z,53.00
2018-09-18T15:03:22.260Z,51.90
2018-09-18T15:05:51.564Z,53.00
2018-09-18T15:10:47.746Z,51.50
2018-09-18T15:13:16.035Z,53.40
2018-09-18T15:15:44.355Z,55.70
2018-09-18T15:18:12.520Z,56.60
2018-09-18T15:20:40.784Z,65.10
2018-09-18T15:23:08.984Z,60.70
2018-09-18T15:25:37.180Z,67.00
2018-09-18T15:28:05.377Z,71.10
2018-09-18T15:33:01.623Z,73.20
2018-09-18T15:35:29.919Z,75.20
2018-09-18T15:37:58.186Z,76.00
2018-09-18T15:40:26.447Z,77.60
2018-09-18T15:42:54.776Z,77.80
2018-09-18T15:45:23.025Z,79.90
2018-09-18T15:51:22.811Z,81.60
2018-09-18T15:53:51.011Z,81.60
2018-09-18T15:56:19.242Z,81.60
2018-09-18T15:58:47.602Z,82.30
2018-09-18T16:01:15.911Z,83.50
2018-09-18T16:03:44.114Z,85.00
2018-09-18T16:06:12.242Z,85.40
2018-09-18T16:08:40.465Z,84.50
2018-09-18T16:11:08.815Z,82.40
2018-09-18T16:13:37.019Z,80.80
2018-09-18T16:16:05.243Z,78.60
2018-09-18T16:18:33.467Z,79.00
2018-09-18T16:21:01.688Z,79.60
2018-09-18T16:23:29.901Z,78.70
2018-09-18T16:25:58.221Z,80.70
2018-09-18T16:28:26.489Z,81.10
2018-09-18T16:30:54.773Z,81.70
2018-09-18T16:33:23.024Z,81.50
2018-09-18T16:35:51.292Z,81.90
2018-09-18T16:38:19.520Z,82.50
2018-09-18T16:40:47.788Z,83.20
2018-09-18T16:43:15.995Z,82.40
2018-09-18T16:45:44.299Z,82.40
2018-09-18T16:48:12.501Z,82.70
2018-09-18T16:50:40.739Z,82.80
2018-09-18T16:53:08.933Z,84.50
2018-09-18T17:00:33.295Z,84.90
2018-09-18T17:03:01.459Z,84.00
2018-09-18T17:05:29.652Z,85.30
2018-09-18T17:07:57.836Z,83.10
2018-09-18T17:10:26.067Z,84.40
2018-09-18T17:12:54.393Z,85.00
2018-09-18T17:15:22.627Z,85.50
2018-09-18T17:17:57.472Z,85.50
2018-09-18T17:20:25.691Z,87.10
2018-09-18T17:22:53.873Z,87.90
2018-09-18T17:25:22.071Z,88.40
2018-09-18T17:27:50.335Z,87.80
2018-09-18T17:30:18.628Z,89.40
2018-09-18T17:32:46.918Z,89.60
2018-09-18T17:35:15.134Z,89.20
2018-09-18T17:37:43.387Z,88.60
2018-09-18T17:40:11.680Z,89.10
2018-09-18T17:42:39.946Z,89.80
2018-09-18T17:45:08.469Z,90.70
2018-09-18T17:47:37.065Z,91.00
2018-09-18T17:50:05.357Z,90.90
2018-09-18T17:52:33.528Z,91.30
2018-09-18T17:55:01.751Z,92.10
2018-09-18T17:57:30.048Z,92.00
2018-09-18T17:59:58.231Z,91.80
2018-09-18T18:02:26.465Z,91.50
2018-09-18T18:04:54.735Z,91.10
2018-09-18T18:07:22.952Z,91.50
2018-09-18T18:09:51.188Z,90.60
2018-09-18T18:12:19.439Z,91.10
2018-09-18T18:14:47.635Z,90.50
2018-09-18T18:17:15.940Z,90.10
2018-09-18T18:19:44.266Z,89.70
2018-09-18T18:22:12.465Z,90.30
2018-09-18T18:24:40.754Z,94.00
2018-09-18T18:27:09.018Z,90.60
2018-09-18T18:29:37.464Z,90.90
2018-09-18T18:32:05.679Z,90.90
2018-09-18T18:34:33.978Z,91.20
2018-09-18T18:37:02.204Z,91.00
2018-09-18T18:39:30.426Z,91.20
2018-09-18T18:41:58.662Z,90.80
2018-09-18T18:44:26.992Z,90.70
2018-09-18T18:46:55.262Z,90.60
2018-09-18T18:49:23.515Z,90.60
2018-09-18T18:51:51.715Z,90.30
2018-09-18T18:54:19.944Z,90.10
2018-09-18T18:56:48.146Z,90.20
2018-09-18T18:59:16.407Z,90.40
2018-09-18T19:01:44.584Z,90.70
2018-09-18T19:06:40.798Z,90.20
2018-09-18T19:09:09.070Z,90.30
2018-09-18T19:11:37.316Z,90.70
2018-09-18T19:14:05.550Z,90.50
2018-09-18T19:16:33.740Z,91.30
2018-09-18T19:19:02.003Z,91.00
2018-09-18T19:21:30.455Z,91.00
2018-09-18T19:23:58.642Z,90.40
2018-09-18T19:26:26.847Z,90.20
2018-09-18T19:28:55.027Z,90.30
2018-09-18T19:31:23.282Z,90.30
2018-09-18T19:33:51.552Z,90.50
2018-09-18T19:36:19.831Z,90.10
2018-09-18T19:38:48.187Z,90.60
2018-09-18T19:41:16.420Z,91.10
2018-09-18T19:43:44.675Z,91.40
2018-09-18T19:46:12.980Z,91.10
2018-09-18T19:48:41.647Z,91.10
2018-09-18T19:51:10.004Z,91.70
2018-09-18T19:53:38.217Z,91.20
2018-09-18T19:56:06.507Z,91.60
2018-09-18T19:58:34.693Z,90.90
2018-09-18T20:01:02.943Z,90.20
2018-09-18T20:03:31.155Z,89.20
2018-09-18T20:05:59.455Z,90.00
2018-09-18T20:08:27.721Z,90.30
2018-09-18T20:10:55.911Z,90.80
2018-09-18T20:13:24.211Z,91.50
2018-09-18T20:15:52.524Z,92.10
2018-09-18T20:18:20.790Z,92.30
2018-09-18T20:20:49.070Z,91.90
2018-09-18T20:23:17.351Z,92.20
2018-09-18T20:25:45.558Z,91.80
2018-09-18T20:28:13.840Z,91.60
2018-09-18T20:30:42.156Z,91.50
2018-09-18T20:33:10.451Z,91.80
2018-09-18T20:35:38.761Z,92.40
2018-09-18T20:38:06.877Z,91.80
2018-09-18T20:40:35.183Z,91.80
2018-09-18T20:43:03.382Z,92.00
2018-09-18T20:45:31.614Z,92.40
2018-09-18T20:47:59.794Z,92.20
2018-09-18T20:50:28.054Z,92.00
2018-09-18T20:52:56.522Z,92.20
2018-09-18T20:55:24.857Z,91.90
2018-09-18T20:57:53.128Z,90.60
2018-09-18T21:00:21.354Z,90.20
2018-09-18T21:02:49.592Z,90.70
2018-09-18T21:10:14.856Z,91.10
2018-09-18T21:12:43.152Z,91.20
2018-09-18T21:15:11.364Z,91.10
2018-09-18T21:17:39.546Z,91.20
2018-09-18T21:20:14.501Z,90.80
2018-09-18T21:22:42.703Z,90.80
2018-09-18T21:25:15.126Z,90.90
2018-09-18T21:27:44.709Z,91.10
2018-09-18T21:30:13.507Z,91.20
2018-09-18T21:32:41.795Z,91.20
2018-09-18T21:35:09.986Z,91.00
2018-09-18T21:37:38.321Z,91.10
2018-09-18T21:40:06.547Z,91.20
2018-09-18T21:42:34.862Z,91.60
2018-09-18T21:45:04.121Z,91.00
2018-09-18T21:47:32.395Z,91.30
2018-09-18T21:50:00.726Z,91.40
2018-09-18T21:52:28.895Z,91.30
2018-09-18T21:54:57.120Z,91.70
2018-09-18T21:57:25.412Z,92.10
2018-09-18T21:59:53.595Z,91.60
2018-09-18T22:02:21.844Z,91.40
2018-09-18T22:04:50.085Z,91.50
2018-09-18T22:07:18.363Z,91.50
2018-09-18T22:09:46.614Z,91.70
2018-09-18T22:14:42.765Z,91.90
2018-09-18T22:17:10.984Z,92.50
2018-09-18T22:19:39.287Z,92.70
2018-09-18T22:22:07.550Z,92.70
2018-09-18T22:24:35.825Z,92.50
2018-09-18T22:27:04.012Z,92.30
2018-09-18T22:29:32.303Z,92.30
2018-09-18T22:32:00.515Z,92.20
2018-09-18T22:34:28.815Z,92.10
2018-09-18T22:36:57.074Z,92.50
2018-09-18T22:39:25.370Z,92.60
2018-09-18T22:41:53.625Z,92.30
2018-09-18T22:44:21.899Z,92.60
2018-09-18T22:46:50.166Z,92.70
2018-09-18T22:49:18.400Z,92.80
2018-09-18T22:51:46.596Z,92.80
2018-09-18T22:54:14.791Z,92.60
2018-09-18T22:56:43.082Z,93.00
2018-09-18T22:59:11.366Z,93.20
2018-09-18T23:01:39.658Z,93.20
2018-09-18T23:04:07.941Z,92.90
2018-09-18T23:06:36.130Z,92.90
2018-09-18T23:09:06.567Z,92.60
2018-09-18T23:14:02.929Z,92.90
2018-09-18T23:18:59.108Z,92.70
2018-09-18T23:21:27.308Z,93.10
2018-09-18T23:23:55.532Z,93.10
2018-09-18T23:26:23.715Z,93.00
2018-09-18T23:28:51.926Z,92.80
2018-09-18T23:31:20.229Z,93.10
2018-09-18T23:33:48.464Z,92.70
2018-09-18T23:36:16.727Z,92.80
2018-09-18T23:38:45.020Z,92.80
2018-09-18T23:41:13.214Z,92.70
2018-09-18T23:43:41.663Z,92.40
2018-09-18T23:46:09.954Z,92.10
2018-09-18T23:48:38.198Z,92.10
2018-09-18T23:51:06.473Z,92.20
2018-09-18T23:53:34.755Z,92.10
2018-09-18T23:56:02.972Z,92.10
2018-09-18T23:58:31.311Z,92.30
